createdAt,value
2023-09-27T00:02:13.695Z,84.36
2023-09-27T00:04:40.923Z,84.32
2023-09-27T00:07:09.987Z,84.35
2023-09-27T00:09:37.506Z,84.50
2023-09-27T00:12:06.079Z,84.61
2023-09-27T00:14:32.964Z,84.54
2023-09-27T00:16:59.890Z,84.80
2023-09-27T00:19:26.837Z,84.76
2023-09-27T00:21:53.828Z,84.79
2023-09-27T00:24:22.231Z,84.99
2023-09-27T00:26:49.102Z,84.87
2023-09-27T00:29:15.955Z,84.99
2023-09-27T00:31:42.940Z,85.07
2023-09-27T00:34:09.910Z,84.98
2023-09-27T00:36:37.116Z,85.17
2023-09-27T00:39:04.487Z,85.27
2023-09-27T00:41:32.770Z,85.26
2023-09-27T00:43:59.912Z,85.26
2023-09-27T00:46:26.803Z,85.37
2023-09-27T00:48:54.092Z,85.30
2023-09-27T00:51:21.096Z,85.20
2023-09-27T00:53:50.778Z,85.40
2023-09-27T00:56:18.070Z,85.48
2023-09-27T00:58:46.473Z,85.41
2023-09-27T01:01:14.315Z,85.53
2023-09-27T01:03:43.287Z,85.38
2023-09-27T01:06:12.936Z,85.66
2023-09-27T01:08:39.935Z,85.52
2023-09-27T01:11:06.931Z,85.70
2023-09-27T01:13:34.176Z,85.56
2023-09-27T01:16:03.349Z,85.76
2023-09-27T01:18:30.345Z,85.72
2023-09-27T01:20:57.279Z,85.69
2023-09-27T01:23:26.240Z,85.52
2023-09-27T01:25:59.971Z,85.52
2023-09-27T01:28:27.333Z,85.74
2023-09-27T01:30:54.520Z,85.56
2023-09-27T01:33:21.468Z,85.78
2023-09-27T01:35:49.215Z,85.79
2023-09-27T01:38:16.392Z,85.53
2023-09-27T01:40:46.166Z,85.68
2023-09-27T01:43:14.026Z,85.47
2023-09-27T01:45:40.907Z,85.47
2023-09-27T01:48:07.959Z,85.64
2023-09-27T01:50:36.174Z,85.46
2023-09-27T01:53:04.497Z,85.55
2023-09-27T01:55:32.573Z,85.65
2023-09-27T01:58:02.424Z,85.61
2023-09-27T02:00:29.434Z,85.39
2023-09-27T02:02:57.820Z,85.59
2023-09-27T02:05:25.694Z,85.65
2023-09-27T02:07:53.520Z,85.44
2023-09-27T02:10:20.441Z,85.42
2023-09-27T02:12:47.511Z,85.73
2023-09-27T02:15:17.000Z,85.51
2023-09-27T02:17:44.825Z,85.62
2023-09-27T02:20:14.372Z,85.51
2023-09-27T02:22:43.023Z,85.59
2023-09-27T02:25:12.813Z,85.41
2023-09-27T02:27:40.538Z,85.64
2023-09-27T02:30:12.785Z,85.65
2023-09-27T02:32:42.512Z,85.36
2023-09-27T02:35:10.493Z,85.36
2023-09-27T02:37:38.273Z,85.43
2023-09-27T02:40:13.118Z,85.29
2023-09-27T02:42:41.581Z,85.28
2023-09-27T02:45:10.361Z,85.12
2023-09-27T02:47:37.518Z,85.37
2023-09-27T02:50:09.719Z,85.35
2023-09-27T02:52:36.606Z,85.36
2023-09-27T02:55:03.881Z,85.11
2023-09-27T02:57:30.682Z,85.28
2023-09-27T02:59:57.597Z,85.45
2023-09-27T03:02:24.947Z,85.35
2023-09-27T03:04:52.222Z,85.12
2023-09-27T03:07:20.395Z,85.10
2023-09-27T03:09:48.542Z,85.43
2023-09-27T03:12:16.921Z,85.55
2023-09-27T03:14:43.812Z,85.45
2023-09-27T03:17:11.299Z,85.36
2023-09-27T03:19:38.601Z,85.61
2023-09-27T03:22:05.614Z,85.43
2023-09-27T03:24:35.545Z,85.49
2023-09-27T03:27:04.301Z,85.24
2023-09-27T03:29:31.952Z,85.41
2023-09-27T03:31:59.113Z,85.32
2023-09-27T03:34:26.473Z,85.59
2023-09-27T03:36:59.352Z,85.54
2023-09-27T03:39:30.143Z,85.60
2023-09-27T03:41:58.403Z,85.48
2023-09-27T03:44:25.396Z,85.54
2023-09-27T03:46:52.626Z,85.14
2023-09-27T03:49:19.464Z,85.25
2023-09-27T03:51:46.310Z,85.24
2023-09-27T03:54:18.436Z,85.37
2023-09-27T03:56:48.027Z,85.62
2023-09-27T03:59:16.410Z,85.59
2023-09-27T04:01:43.540Z,85.42
2023-09-27T04:04:10.606Z,85.41
2023-09-27T04:06:37.611Z,85.32
2023-09-27T04:09:05.426Z,85.28
2023-09-27T04:11:32.394Z,85.30
2023-09-27T04:13:59.220Z,85.31
2023-09-27T04:16:31.709Z,85.45
2023-09-27T04:18:58.869Z,85.40
2023-09-27T04:21:26.329Z,85.48
2023-09-27T04:24:00.468Z,85.53
2023-09-27T04:26:28.022Z,85.47
2023-09-27T04:28:55.247Z,85.51
2023-09-27T04:31:22.553Z,85.40
2023-09-27T04:33:51.249Z,85.46
2023-09-27T04:36:19.310Z,85.64
2023-09-27T04:38:47.499Z,85.42
2023-09-27T04:41:16.004Z,85.41
2023-09-27T04:43:46.204Z,85.50
2023-09-27T04:46:14.083Z,85.56
2023-09-27T04:48:40.930Z,85.44
2023-09-27T04:51:09.911Z,85.33
2023-09-27T04:53:38.717Z,85.42
2023-09-27T04:56:07.379Z,85.61
2023-09-27T04:58:35.611Z,85.45
2023-09-27T05:01:03.775Z,85.28
2023-09-27T05:03:30.812Z,85.52
2023-09-27T05:05:57.873Z,85.47
2023-09-27T05:08:27.576Z,85.31
2023-09-27T05:10:56.137Z,85.56
2023-09-27T05:13:23.014Z,85.53
2023-09-27T05:15:50.523Z,85.68
2023-09-27T05:18:17.364Z,85.41
2023-09-27T05:20:47.544Z,85.34
2023-09-27T05:23:14.549Z,85.53
2023-09-27T05:25:42.933Z,85.33
2023-09-27T05:28:10.413Z,85.54
2023-09-27T05:30:37.544Z,85.81
2023-09-27T05:33:07.641Z,85.46
2023-09-27T05:35:34.960Z,85.62
2023-09-27T05:38:01.872Z,85.60
2023-09-27T05:40:29.084Z,85.77
2023-09-27T05:42:58.602Z,85.61
2023-09-27T05:45:28.397Z,85.69
2023-09-27T05:47:56.308Z,85.76
2023-09-27T05:50:24.365Z,85.91
2023-09-27T05:52:51.155Z,85.86
2023-09-27T05:55:18.100Z,85.76
2023-09-27T05:57:45.750Z,85.86
2023-09-27T06:00:28.235Z,85.71
2023-09-27T06:02:55.774Z,86.05
2023-09-27T06:05:23.021Z,85.86
2023-09-27T06:07:50.334Z,86.04
2023-09-27T06:10:17.816Z,85.93
2023-09-27T06:12:44.720Z,86.02
2023-09-27T06:15:13.610Z,86.05
2023-09-27T06:17:43.489Z,86.30
2023-09-27T06:20:21.259Z,86.29
2023-09-27T06:22:53.741Z,86.25
2023-09-27T06:25:24.865Z,86.09
2023-09-27T06:27:52.910Z,86.28
2023-09-27T06:30:21.730Z,86.28
2023-09-27T06:32:50.145Z,86.29
2023-09-27T06:35:17.692Z,86.47
2023-09-27T06:37:50.295Z,86.37
2023-09-27T06:40:18.588Z,86.48
2023-09-27T06:42:46.126Z,86.60
2023-09-27T06:45:14.419Z,86.47
2023-09-27T06:47:42.394Z,86.63
2023-09-27T06:50:12.178Z,86.73
2023-09-27T06:52:40.959Z,86.76
2023-09-27T06:55:17.434Z,86.61
2023-09-27T06:57:45.857Z,86.50
2023-09-27T07:00:33.900Z,86.57
2023-09-27T07:03:00.789Z,86.42
2023-09-27T07:05:29.035Z,86.49
2023-09-27T07:07:56.058Z,86.50
2023-09-27T07:10:24.683Z,86.64
2023-09-27T07:12:51.552Z,86.45
2023-09-27T07:15:18.412Z,86.45
2023-09-27T07:17:46.890Z,86.45
2023-09-27T07:20:28.443Z,86.51
2023-09-27T07:22:58.230Z,86.23
2023-09-27T07:25:33.627Z,86.41
2023-09-27T07:28:02.865Z,86.44
2023-09-27T07:30:29.582Z,86.69
2023-09-27T07:32:58.292Z,86.66
2023-09-27T07:35:28.604Z,86.69
2023-09-27T07:37:56.981Z,86.56
2023-09-27T07:40:24.396Z,86.31
2023-09-27T07:42:52.285Z,86.13
2023-09-27T07:45:27.523Z,86.25
2023-09-27T07:47:55.789Z,86.11
2023-09-27T07:50:27.939Z,86.59
2023-09-27T07:52:55.331Z,86.55
2023-09-27T07:55:23.917Z,86.50
2023-09-27T07:57:54.047Z,86.53
2023-09-27T08:00:27.094Z,86.53
2023-09-27T08:02:55.671Z,86.66
2023-09-27T08:05:23.615Z,86.80
2023-09-27T08:07:52.051Z,86.79
2023-09-27T08:10:21.830Z,86.74
2023-09-27T08:12:50.390Z,86.82
2023-09-27T08:15:19.504Z,86.76
2023-09-27T08:17:48.773Z,86.81
2023-09-27T08:20:16.281Z,86.39
2023-09-27T08:22:43.354Z,86.57
2023-09-27T08:25:16.474Z,86.44
2023-09-27T08:27:44.293Z,86.51
2023-09-27T08:30:13.743Z,86.64
2023-09-27T08:32:42.221Z,86.54
2023-09-27T08:35:10.559Z,86.53
2023-09-27T08:37:37.781Z,86.25
2023-09-27T08:40:06.690Z,86.09
2023-09-27T08:42:35.219Z,86.00
2023-09-27T08:45:04.150Z,86.02
2023-09-27T08:47:33.804Z,85.93
2023-09-27T08:50:01.065Z,85.82
2023-09-27T08:52:29.358Z,85.93
2023-09-27T08:54:56.348Z,85.91
2023-09-27T08:57:27.331Z,86.04
2023-09-27T08:59:54.789Z,85.87
2023-09-27T09:02:25.517Z,86.12
2023-09-27T09:04:53.894Z,85.90
2023-09-27T09:07:20.732Z,85.70
2023-09-27T09:09:47.666Z,85.58
2023-09-27T09:12:14.854Z,85.65
2023-09-27T09:14:51.036Z,85.56
2023-09-27T09:17:20.377Z,85.57
2023-09-27T09:20:16.422Z,85.76
2023-09-27T09:22:45.239Z,85.60
2023-09-27T09:25:12.187Z,85.74
2023-09-27T09:27:39.453Z,85.87
2023-09-27T09:30:08.506Z,85.75
2023-09-27T09:32:36.436Z,85.69
2023-09-27T09:35:08.100Z,85.51
2023-09-27T09:37:36.464Z,85.35
2023-09-27T09:40:16.768Z,85.25
2023-09-27T09:42:44.309Z,85.11
2023-09-27T09:45:13.974Z,85.15
2023-09-27T09:47:43.175Z,85.17
2023-09-27T09:50:19.892Z,85.21
2023-09-27T09:52:58.931Z,85.15
2023-09-27T09:55:52.120Z,85.11
2023-09-27T09:58:26.213Z,84.95
2023-09-27T10:00:55.130Z,84.43
2023-09-27T10:03:23.693Z,84.32
2023-09-27T10:05:55.007Z,84.08
2023-09-27T10:08:23.154Z,84.01
2023-09-27T10:10:50.214Z,83.99
2023-09-27T10:13:19.472Z,84.04
2023-09-27T10:15:46.652Z,84.40
2023-09-27T10:18:34.859Z,84.07
2023-09-27T10:21:08.538Z,83.94
2023-09-27T10:24:00.227Z,83.85
2023-09-27T10:26:36.882Z,83.76
2023-09-27T10:29:15.388Z,83.87
2023-09-27T10:32:14.729Z,84.00
2023-09-27T10:34:42.347Z,83.82
2023-09-27T10:39:42.719Z,83.53
2023-09-27T10:42:10.152Z,83.46
2023-09-27T10:44:44.987Z,83.55
2023-09-27T10:47:13.309Z,83.49
2023-09-27T10:49:40.211Z,83.18
2023-09-27T10:52:17.930Z,82.92
2023-09-27T10:54:45.311Z,82.72
2023-09-27T10:57:13.328Z,82.71
2023-09-27T10:59:40.667Z,82.33
2023-09-27T11:02:08.039Z,82.26
2023-09-27T11:04:37.423Z,82.15
2023-09-27T11:07:05.340Z,82.23
2023-09-27T11:09:43.104Z,81.87
2023-09-27T11:12:09.894Z,81.91
2023-09-27T11:14:36.745Z,81.63
2023-09-27T11:17:16.369Z,81.50
2023-09-27T11:19:44.888Z,81.41
2023-09-27T11:22:12.376Z,81.29
2023-09-27T11:24:41.852Z,81.09
2023-09-27T11:27:09.359Z,81.02
2023-09-27T11:29:36.882Z,80.78
2023-09-27T11:32:04.286Z,80.87
2023-09-27T11:34:31.661Z,80.95
2023-09-27T11:36:58.975Z,81.13
2023-09-27T11:39:28.714Z,81.20
2023-09-27T11:42:01.935Z,81.17
2023-09-27T11:44:29.336Z,81.07
2023-09-27T11:47:06.798Z,80.92
2023-09-27T11:49:35.044Z,80.72
2023-09-27T11:52:03.035Z,80.73
2023-09-27T11:54:30.580Z,80.50
2023-09-27T11:56:59.843Z,80.16
2023-09-27T11:59:26.777Z,80.06
2023-09-27T12:01:53.640Z,79.94
2023-09-27T12:04:20.586Z,79.96
2023-09-27T12:06:48.520Z,79.82
2023-09-27T12:09:16.098Z,79.60
2023-09-27T12:11:42.971Z,79.33
2023-09-27T12:14:11.346Z,78.97
2023-09-27T12:16:38.262Z,78.86
2023-09-27T12:19:05.679Z,79.04
2023-09-27T12:21:36.058Z,78.74
2023-09-27T12:24:03.772Z,78.56
2023-09-27T12:26:31.999Z,78.15
2023-09-27T12:28:59.828Z,77.83
2023-09-27T12:31:28.469Z,77.69
2023-09-27T12:33:55.954Z,77.47
2023-09-27T12:36:23.764Z,77.48
2023-09-27T12:38:50.925Z,77.33
2023-09-27T12:41:19.059Z,77.22
2023-09-27T12:43:46.938Z,76.90
2023-09-27T12:46:14.900Z,76.58
2023-09-27T12:48:43.246Z,76.57
2023-09-27T12:51:10.639Z,76.52
2023-09-27T12:53:37.550Z,76.34
2023-09-27T12:56:05.384Z,76.30
2023-09-27T12:58:32.838Z,75.77
2023-09-27T13:01:02.565Z,75.80
2023-09-27T13:03:30.909Z,75.71
2023-09-27T13:05:59.518Z,75.64
2023-09-27T13:08:29.855Z,75.63
2023-09-27T13:10:56.973Z,75.36
2023-09-27T13:13:24.374Z,75.09
2023-09-27T13:15:51.339Z,74.87
2023-09-27T13:18:18.561Z,74.87
2023-09-27T13:20:46.141Z,74.62
2023-09-27T13:23:14.522Z,74.42
2023-09-27T13:25:41.401Z,74.36
2023-09-27T13:28:08.835Z,74.50
2023-09-27T13:30:36.779Z,74.19
2023-09-27T13:33:05.175Z,74.29
2023-09-27T13:35:35.917Z,74.11
2023-09-27T13:38:05.558Z,74.21
2023-09-27T13:40:34.926Z,74.06
2023-09-27T13:43:01.907Z,74.13
2023-09-27T13:45:29.514Z,74.38
2023-09-27T13:47:56.639Z,74.33
2023-09-27T13:50:24.088Z,74.29
2023-09-27T13:52:51.013Z,74.32
2023-09-27T13:55:18.398Z,74.58
2023-09-27T13:57:49.479Z,74.59
2023-09-27T14:00:17.203Z,74.52
2023-09-27T14:02:46.224Z,74.64
2023-09-27T14:05:14.526Z,74.65
2023-09-27T14:07:43.749Z,74.22
2023-09-27T14:10:11.317Z,74.29
2023-09-27T14:12:38.306Z,74.05
2023-09-27T14:15:08.241Z,73.85
2023-09-27T14:17:36.139Z,74.10
2023-09-27T14:20:03.605Z,74.00
2023-09-27T14:22:30.965Z,73.92
2023-09-27T14:24:58.492Z,73.91
2023-09-27T14:27:29.865Z,74.01
2023-09-27T14:29:57.073Z,74.23
2023-09-27T14:32:28.688Z,74.04
2023-09-27T14:34:57.947Z,74.11
2023-09-27T14:37:25.929Z,73.98
2023-09-27T14:39:53.297Z,74.09
2023-09-27T14:42:20.511Z,74.27
2023-09-27T14:44:47.421Z,74.43
2023-09-27T14:47:14.642Z,74.52
2023-09-27T14:49:42.891Z,74.60
2023-09-27T14:52:10.004Z,74.35
2023-09-27T14:54:36.929Z,74.27
2023-09-27T14:57:03.975Z,74.15
2023-09-27T14:59:30.865Z,74.08
2023-09-27T15:01:59.287Z,73.94
2023-09-27T15:04:26.967Z,74.04
2023-09-27T15:06:56.439Z,74.00
2023-09-27T15:09:23.538Z,74.17
2023-09-27T15:11:50.784Z,74.35
2023-09-27T15:14:17.954Z,74.39
2023-09-27T15:16:44.996Z,74.36
2023-09-27T15:19:12.949Z,74.33
2023-09-27T15:21:40.018Z,74.32
2023-09-27T15:24:10.893Z,74.34
2023-09-27T15:26:37.987Z,74.63
2023-09-27T15:29:04.993Z,74.71
2023-09-27T15:31:32.589Z,74.79
2023-09-27T15:33:59.482Z,74.70
2023-09-27T15:36:30.047Z,74.73
2023-09-27T15:38:57.355Z,75.13
2023-09-27T15:41:27.978Z,75.27
2023-09-27T15:43:55.942Z,75.39
2023-09-27T15:46:22.949Z,75.55
2023-09-27T15:48:50.561Z,75.64
2023-09-27T15:51:20.322Z,75.51
2023-09-27T15:53:47.481Z,75.54
2023-09-27T15:56:14.688Z,75.62
2023-09-27T15:58:42.984Z,75.55
2023-09-27T16:01:09.938Z,75.87
2023-09-27T16:03:36.980Z,75.66
2023-09-27T16:06:05.584Z,75.84
2023-09-27T16:08:33.144Z,76.01
2023-09-27T16:11:00.932Z,75.88
2023-09-27T16:13:29.321Z,76.14
2023-09-27T16:15:57.666Z,76.15
2023-09-27T16:18:24.529Z,76.23
2023-09-27T16:20:51.493Z,76.19
2023-09-27T16:23:18.457Z,76.45
2023-09-27T16:25:46.508Z,76.17
2023-09-27T16:28:13.670Z,76.51
2023-09-27T16:30:41.122Z,76.39
2023-09-27T16:33:11.134Z,76.34
2023-09-27T16:35:38.960Z,76.54
2023-09-27T16:38:07.097Z,76.40
2023-09-27T16:40:34.109Z,76.63
2023-09-27T16:43:01.614Z,76.89
2023-09-27T16:45:28.847Z,76.84
2023-09-27T16:47:55.752Z,76.86
2023-09-27T16:50:24.189Z,76.92
2023-09-27T16:52:51.093Z,77.14
2023-09-27T16:55:17.929Z,77.20
2023-09-27T16:57:44.895Z,77.14
2023-09-27T17:00:12.939Z,77.22
2023-09-27T17:02:41.963Z,77.28
2023-09-27T17:05:09.208Z,77.13
2023-09-27T17:07:37.730Z,77.54
2023-09-27T17:10:06.315Z,77.31
2023-09-27T17:12:34.454Z,77.70
2023-09-27T17:15:01.508Z,77.75
2023-09-27T17:17:29.696Z,77.59
2023-09-27T17:19:56.791Z,77.48
2023-09-27T17:22:23.714Z,77.63
2023-09-27T17:24:53.148Z,77.77
2023-09-27T17:27:20.259Z,77.72
2023-09-27T17:29:47.194Z,77.98
2023-09-27T17:32:14.110Z,77.83
2023-09-27T17:34:41.170Z,78.12
2023-09-27T17:37:08.794Z,78.23
2023-09-27T17:39:36.616Z,78.41
2023-09-27T17:42:07.303Z,78.42
2023-09-27T17:44:34.260Z,78.20
2023-09-27T17:47:01.522Z,78.32
2023-09-27T17:49:29.859Z,78.40
2023-09-27T17:51:57.033Z,78.49
2023-09-27T17:54:24.177Z,78.65
2023-09-27T17:56:54.152Z,78.55
2023-09-27T17:59:22.705Z,78.73
2023-09-27T18:01:49.877Z,78.84
2023-09-27T18:04:17.272Z,79.02
2023-09-27T18:06:44.191Z,79.04
2023-09-27T18:09:11.658Z,79.06
2023-09-27T18:11:38.564Z,79.26
2023-09-27T18:14:06.166Z,79.44
2023-09-27T18:16:34.558Z,79.46
2023-09-27T18:19:01.685Z,79.57
2023-09-27T18:21:29.394Z,79.68
2023-09-27T18:24:15.004Z,79.86
2023-09-27T18:26:42.035Z,79.88
2023-09-27T18:29:10.001Z,80.02
2023-09-27T18:31:40.446Z,80.14
2023-09-27T18:34:07.675Z,80.18
2023-09-27T18:36:34.934Z,80.44
2023-09-27T18:39:02.482Z,80.28
2023-09-27T18:41:29.368Z,80.58
2023-09-27T18:43:56.922Z,80.64
2023-09-27T18:46:24.332Z,80.54
2023-09-27T18:48:53.829Z,80.79
2023-09-27T18:51:21.841Z,80.71
2023-09-27T18:53:49.303Z,80.79
2023-09-27T18:56:16.248Z,80.82
2023-09-27T18:58:43.222Z,81.06
2023-09-27T19:01:10.186Z,81.09
2023-09-27T19:03:37.087Z,81.15
2023-09-27T19:06:06.093Z,81.27
2023-09-27T19:08:33.107Z,81.34
2023-09-27T19:11:01.553Z,81.41
2023-09-27T19:13:28.586Z,81.27
2023-09-27T19:16:03.152Z,81.42
2023-09-27T19:18:30.040Z,81.42
2023-09-27T19:20:57.022Z,81.51
2023-09-27T19:23:25.176Z,81.45
2023-09-27T19:25:52.122Z,81.64
2023-09-27T19:28:19.390Z,81.58
2023-09-27T19:30:46.409Z,81.76
2023-09-27T19:33:13.562Z,81.78
2023-09-27T19:35:41.897Z,81.65
2023-09-27T19:38:09.729Z,81.94
2023-09-27T19:40:39.008Z,81.93
2023-09-27T19:43:06.095Z,81.90
2023-09-27T19:45:33.126Z,82.00
2023-09-27T19:48:02.033Z,82.01
2023-09-27T19:50:29.350Z,82.18
2023-09-27T19:52:56.405Z,82.25
2023-09-27T19:55:23.220Z,82.62
2023-09-27T19:57:51.480Z,82.78
2023-09-27T20:00:19.482Z,82.82
2023-09-27T20:02:47.274Z,82.77
2023-09-27T20:05:14.459Z,82.71
2023-09-27T20:07:47.726Z,82.72
2023-09-27T20:10:15.878Z,82.71
2023-09-27T20:12:44.022Z,82.74
2023-09-27T20:15:16.180Z,82.60
2023-09-27T20:17:45.492Z,82.69
2023-09-27T20:20:12.743Z,82.64
2023-09-27T20:22:39.914Z,82.80
2023-09-27T20:25:11.592Z,82.77
2023-09-27T20:27:40.017Z,82.75
2023-09-27T20:30:33.310Z,82.73
2023-09-27T20:33:08.201Z,82.76
2023-09-27T20:35:56.148Z,82.84
2023-09-27T20:38:24.458Z,82.81
2023-09-27T20:40:51.493Z,82.80
2023-09-27T20:43:19.695Z,82.98
2023-09-27T20:45:46.526Z,82.82
2023-09-27T20:48:50.281Z,83.00
2023-09-27T20:51:27.911Z,82.99
2023-09-27T20:53:55.702Z,83.02
2023-09-27T20:57:32.959Z,83.24
2023-09-27T21:02:59.539Z,83.20
2023-09-27T21:05:29.306Z,83.03
2023-09-27T21:07:59.630Z,83.07
2023-09-27T21:10:28.152Z,83.04
2023-09-27T21:13:04.601Z,82.98
2023-09-27T21:15:34.075Z,83.02
2023-09-27T21:18:02.240Z,82.97
2023-09-27T21:20:30.573Z,83.06
2023-09-27T21:23:04.149Z,82.99
2023-09-27T21:25:33.364Z,82.98
2023-09-27T21:28:05.023Z,83.09
2023-09-27T21:30:47.625Z,82.89
2023-09-27T21:33:19.023Z,83.02
2023-09-27T21:35:53.754Z,82.90
2023-09-27T21:38:30.582Z,82.99
2023-09-27T21:41:04.291Z,82.88
2023-09-27T21:43:37.298Z,82.85
2023-09-27T21:46:21.493Z,82.91
2023-09-27T21:48:55.626Z,82.96
2023-09-27T21:51:27.762Z,82.85
2023-09-27T21:53:56.201Z,82.75
2023-09-27T21:56:23.171Z,82.68
2023-09-27T21:58:50.116Z,82.70
2023-09-27T22:01:17.055Z,82.58
2023-09-27T22:03:44.148Z,82.65
2023-09-27T22:06:11.768Z,82.39
2023-09-27T22:08:38.804Z,82.52
2023-09-27T22:11:07.323Z,82.28
2023-09-27T22:13:39.318Z,82.32
2023-09-27T22:16:11.334Z,82.47
2023-09-27T22:18:53.511Z,82.49
2023-09-27T22:21:28.315Z,82.47
2023-09-27T22:23:57.401Z,82.34
2023-09-27T22:26:26.466Z,82.39
2023-09-27T22:28:57.306Z,82.19
2023-09-27T22:31:27.961Z,82.08
2023-09-27T22:34:05.914Z,82.19
2023-09-27T22:36:32.874Z,81.88
2023-09-27T22:39:10.216Z,81.93
2023-09-27T22:41:40.996Z,81.74
2023-09-27T22:44:20.524Z,81.55
2023-09-27T22:46:48.181Z,81.44
2023-09-27T22:49:16.049Z,81.45
2023-09-27T22:51:46.388Z,81.45
2023-09-27T22:54:15.813Z,81.37
2023-09-27T22:56:44.462Z,81.27
2023-09-27T22:59:13.075Z,81.11
2023-09-27T23:01:41.611Z,81.12
2023-09-27T23:04:15.272Z,80.89
2023-09-27T23:06:46.472Z,80.89
2023-09-27T23:09:21.492Z,80.78
2023-09-27T23:11:57.057Z,80.71
2023-09-27T23:14:24.122Z,80.62
2023-09-27T23:17:11.807Z,80.54
2023-09-27T23:19:44.807Z,80.69
2023-09-27T23:25:34.334Z,80.40
2023-09-27T23:28:04.463Z,80.28
2023-09-27T23:30:31.761Z,80.13
2023-09-27T23:33:00.281Z,79.99
2023-09-27T23:35:31.336Z,80.19
2023-09-27T23:38:30.768Z,79.83
2023-09-27T23:41:02.091Z,79.95
2023-09-27T23:43:41.247Z,79.87
2023-09-27T23:46:15.178Z,79.80
2023-09-27T23:48:42.975Z,79.86
2023-09-27T23:51:09.846Z,79.76
2023-09-27T23:53:37.332Z,79.91
2023-09-27T23:56:07.973Z,79.92
2023-09-27T23:58:36.519Z,79.87
